sensor_id;sensor_type;location;lat;lon;timestamp;P1;durP1;ratioP1;P2;durP2;ratioP2
27847;SDS011;15212;48.830;8.730;2024-03-17T00:02:19;11.73;;;6.30;;
27847;SDS011;15212;48.830;8.730;2024-03-17T00:04:47;13.25;;;6.50;;
27847;SDS011;15212;48.830;8.730;2024-03-17T00:07:16;14.20;;;6.78;;
27847;SDS011;15212;48.830;8.730;2024-03-17T00:09:44;12.35;;;6.60;;
27847;SDS011;15212;48.830;8.730;2024-03-17T00:12:12;10.48;;;6.33;;
27847;SDS011;15212;48.830;8.730;2024-03-17T00:14:42;14.53;;;6.25;;
27847;SDS011;15212;48.830;8.730;2024-03-17T00:17:10;10.03;;;6.35;;
27847;SDS011;15212;48.830;8.730;2024-03-17T00:19:39;12.10;;;7.03;;
27847;SDS011;15212;48.830;8.730;2024-03-17T00:22:07;9.45;;;6.00;;
27847;SDS011;15212;48.830;8.730;2024-03-17T00:24:37;14.45;;;6.33;;
27847;SDS011;15212;48.830;8.730;2024-03-17T00:27:06;13.62;;;7.12;;
27847;SDS011;15212;48.830;8.730;2024-03-17T00:29:35;14.50;;;6.25;;
27847;SDS011;15212;48.830;8.730;2024-03-17T00:32:03;14.25;;;6.47;;
27847;SDS011;15212;48.830;8.730;2024-03-17T00:34:33;12.65;;;7.83;;
27847;SDS011;15212;48.830;8.730;2024-03-17T00:37:01;19.42;;;9.65;;
27847;SDS011;15212;48.830;8.730;2024-03-17T00:39:29;15.93;;;8.45;;
27847;SDS011;15212;48.830;8.730;2024-03-17T00:41:58;16.10;;;8.80;;
27847;SDS011;15212;48.830;8.730;2024-03-17T00:44:27;18.77;;;10.08;;
27847;SDS011;15212;48.830;8.730;2024-03-17T00:46:55;17.27;;;8.88;;
27847;SDS011;15212;48.830;8.730;2024-03-17T00:49:23;16.23;;;8.63;;
27847;SDS011;15212;48.830;8.730;2024-03-17T00:51:52;16.55;;;8.73;;
27847;SDS011;15212;48.830;8.730;2024-03-17T00:54:20;15.32;;;8.58;;
27847;SDS011;15212;48.830;8.730;2024-03-17T00:56:49;16.20;;;9.05;;
27847;SDS011;15212;48.830;8.730;2024-03-17T00:59:17;16.90;;;9.48;;
27847;SDS011;15212;48.830;8.730;2024-03-17T01:01:45;17.48;;;9.30;;
27847;SDS011;15212;48.830;8.730;2024-03-17T01:04:14;14.10;;;8.53;;
27847;SDS011;15212;48.830;8.730;2024-03-17T01:06:42;19.77;;;8.75;;
27847;SDS011;15212;48.830;8.730;2024-03-17T01:09:11;17.98;;;8.95;;
27847;SDS011;15212;48.830;8.730;2024-03-17T01:11:40;14.55;;;8.85;;
27847;SDS011;15212;48.830;8.730;2024-03-17T01:14:08;12.00;;;7.70;;
27847;SDS011;15212;48.830;8.730;2024-03-17T01:16:36;12.50;;;8.20;;
27847;SDS011;15212;48.830;8.730;2024-03-17T01:19:06;16.82;;;8.20;;
27847;SDS011;15212;48.830;8.730;2024-03-17T01:21:35;14.95;;;8.30;;
27847;SDS011;15212;48.830;8.730;2024-03-17T01:24:04;13.83;;;8.10;;
27847;SDS011;15212;48.830;8.730;2024-03-17T01:26:32;15.78;;;8.20;;
27847;SDS011;15212;48.830;8.730;2024-03-17T01:29:01;11.18;;;7.50;;
27847;SDS011;15212;48.830;8.730;2024-03-17T01:31:29;11.57;;;7.00;;
27847;SDS011;15212;48.830;8.730;2024-03-17T01:33:58;13.80;;;7.72;;
27847;SDS011;15212;48.830;8.730;2024-03-17T01:36:27;21.02;;;11.25;;
27847;SDS011;15212;48.830;8.730;2024-03-17T01:38:55;19.10;;;9.60;;
27847;SDS011;15212;48.830;8.730;2024-03-17T01:41:24;24.10;;;12.80;;
27847;SDS011;15212;48.830;8.730;2024-03-17T01:43:52;15.80;;;9.25;;
27847;SDS011;15212;48.830;8.730;2024-03-17T01:46:20;16.95;;;9.55;;
27847;SDS011;15212;48.830;8.730;2024-03-17T01:48:49;23.50;;;11.80;;
27847;SDS011;15212;48.830;8.730;2024-03-17T01:51:17;21.60;;;11.63;;
27847;SDS011;15212;48.830;8.730;2024-03-17T01:53:46;19.98;;;10.75;;
27847;SDS011;15212;48.830;8.730;2024-03-17T01:56:15;21.90;;;11.78;;
27847;SDS011;15212;48.830;8.730;2024-03-17T01:58:44;17.87;;;9.80;;
27847;SDS011;15212;48.830;8.730;2024-03-17T02:01:13;26.37;;;10.60;;
27847;SDS011;15212;48.830;8.730;2024-03-17T02:03:42;23.30;;;12.07;;
27847;SDS011;15212;48.830;8.730;2024-03-17T02:06:10;17.10;;;10.13;;
27847;SDS011;15212;48.830;8.730;2024-03-17T02:08:51;25.50;;;11.88;;
27847;SDS011;15212;48.830;8.730;2024-03-17T02:11:26;16.37;;;9.28;;
27847;SDS011;15212;48.830;8.730;2024-03-17T02:13:57;16.37;;;9.50;;
27847;SDS011;15212;48.830;8.730;2024-03-17T02:16:29;21.97;;;10.78;;
27847;SDS011;15212;48.830;8.730;2024-03-17T02:18:58;20.37;;;11.00;;
27847;SDS011;15212;48.830;8.730;2024-03-17T02:21:26;25.95;;;12.03;;
27847;SDS011;15212;48.830;8.730;2024-03-17T02:23:56;25.43;;;12.50;;
27847;SDS011;15212;48.830;8.730;2024-03-17T02:26:25;25.02;;;12.23;;
27847;SDS011;15212;48.830;8.730;2024-03-17T02:28:54;21.87;;;12.43;;
27847;SDS011;15212;48.830;8.730;2024-03-17T02:31:22;19.05;;;10.63;;
27847;SDS011;15212;48.830;8.730;2024-03-17T02:33:51;24.98;;;12.18;;
27847;SDS011;15212;48.830;8.730;2024-03-17T02:36:19;20.90;;;11.10;;
27847;SDS011;15212;48.830;8.730;2024-03-17T02:38:48;24.87;;;13.35;;
27847;SDS011;15212;48.830;8.730;2024-03-17T02:41:34;27.13;;;14.33;;
27847;SDS011;15212;48.830;8.730;2024-03-17T02:44:02;33.28;;;13.80;;
27847;SDS011;15212;48.830;8.730;2024-03-17T02:46:31;26.55;;;13.62;;
27847;SDS011;15212;48.830;8.730;2024-03-17T02:49:00;26.40;;;13.08;;
27847;SDS011;15212;48.830;8.730;2024-03-17T02:51:28;22.80;;;12.65;;
27847;SDS011;15212;48.830;8.730;2024-03-17T02:53:57;22.37;;;12.80;;
27847;SDS011;15212;48.830;8.730;2024-03-17T02:56:26;22.27;;;12.47;;
27847;SDS011;15212;48.830;8.730;2024-03-17T02:58:54;23.20;;;11.28;;
27847;SDS011;15212;48.830;8.730;2024-03-17T03:01:22;21.02;;;11.63;;
27847;SDS011;15212;48.830;8.730;2024-03-17T03:03:51;23.98;;;11.28;;
27847;SDS011;15212;48.830;8.730;2024-03-17T03:06:19;25.20;;;12.40;;
27847;SDS011;15212;48.830;8.730;2024-03-17T03:08:48;24.50;;;13.15;;
27847;SDS011;15212;48.830;8.730;2024-03-17T03:11:17;24.37;;;12.80;;
27847;SDS011;15212;48.830;8.730;2024-03-17T03:13:45;28.85;;;12.88;;
27847;SDS011;15212;48.830;8.730;2024-03-17T03:16:14;20.68;;;11.57;;
27847;SDS011;15212;48.830;8.730;2024-03-17T03:18:44;22.45;;;12.35;;
27847;SDS011;15212;48.830;8.730;2024-03-17T03:21:13;23.07;;;12.37;;
27847;SDS011;15212;48.830;8.730;2024-03-17T03:23:41;19.48;;;11.22;;
27847;SDS011;15212;48.830;8.730;2024-03-17T03:26:12;20.15;;;11.12;;
27847;SDS011;15212;48.830;8.730;2024-03-17T03:28:41;17.30;;;10.48;;
27847;SDS011;15212;48.830;8.730;2024-03-17T03:31:12;21.57;;;11.00;;
27847;SDS011;15212;48.830;8.730;2024-03-17T03:34:01;21.52;;;11.95;;
27847;SDS011;15212;48.830;8.730;2024-03-17T03:36:29;26.65;;;13.40;;
27847;SDS011;15212;48.830;8.730;2024-03-17T03:38:58;21.93;;;12.25;;
27847;SDS011;15212;48.830;8.730;2024-03-17T03:41:26;24.75;;;12.20;;
27847;SDS011;15212;48.830;8.730;2024-03-17T03:43:54;29.07;;;16.48;;
27847;SDS011;15212;48.830;8.730;2024-03-17T03:46:23;32.00;;;16.75;;
27847;SDS011;15212;48.830;8.730;2024-03-17T03:48:53;38.20;;;18.17;;
27847;SDS011;15212;48.830;8.730;2024-03-17T03:51:21;37.38;;;19.45;;
27847;SDS011;15212;48.830;8.730;2024-03-17T03:53:50;35.95;;;17.95;;
27847;SDS011;15212;48.830;8.730;2024-03-17T03:56:19;41.90;;;21.07;;
27847;SDS011;15212;48.830;8.730;2024-03-17T03:58:48;35.10;;;19.07;;
27847;SDS011;15212;48.830;8.730;2024-03-17T04:01:17;41.98;;;20.65;;
27847;SDS011;15212;48.830;8.730;2024-03-17T04:03:48;42.10;;;20.70;;
27847;SDS011;15212;48.830;8.730;2024-03-17T04:06:16;42.03;;;21.95;;
27847;SDS011;15212;48.830;8.730;2024-03-17T04:08:44;38.55;;;18.87;;
27847;SDS011;15212;48.830;8.730;2024-03-17T04:11:13;33.60;;;18.45;;
27847;SDS011;15212;48.830;8.730;2024-03-17T04:13:41;27.15;;;15.93;;
27847;SDS011;15212;48.830;8.730;2024-03-17T04:16:10;27.65;;;15.23;;
27847;SDS011;15212;48.830;8.730;2024-03-17T04:18:40;29.30;;;16.37;;
27847;SDS011;15212;48.830;8.730;2024-03-17T04:21:08;25.92;;;14.43;;
27847;SDS011;15212;48.830;8.730;2024-03-17T04:23:37;30.45;;;15.88;;
27847;SDS011;15212;48.830;8.730;2024-03-17T04:26:05;27.82;;;16.05;;
27847;SDS011;15212;48.830;8.730;2024-03-17T04:28:36;31.05;;;16.60;;
27847;SDS011;15212;48.830;8.730;2024-03-17T04:31:05;30.92;;;15.93;;
27847;SDS011;15212;48.830;8.730;2024-03-17T04:33:34;26.65;;;14.53;;
27847;SDS011;15212;48.830;8.730;2024-03-17T04:36:02;26.93;;;15.28;;
27847;SDS011;15212;48.830;8.730;2024-03-17T04:38:31;28.87;;;14.55;;
27847;SDS011;15212;48.830;8.730;2024-03-17T04:40:59;27.07;;;14.93;;
27847;SDS011;15212;48.830;8.730;2024-03-17T04:43:31;30.17;;;15.28;;
27847;SDS011;15212;48.830;8.730;2024-03-17T04:46:00;24.12;;;13.62;;
27847;SDS011;15212;48.830;8.730;2024-03-17T04:48:31;23.18;;;12.82;;
27847;SDS011;15212;48.830;8.730;2024-03-17T04:51:00;22.73;;;12.53;;
27847;SDS011;15212;48.830;8.730;2024-03-17T04:53:28;22.25;;;13.00;;
27847;SDS011;15212;48.830;8.730;2024-03-17T04:56:00;24.92;;;13.35;;
27847;SDS011;15212;48.830;8.730;2024-03-17T04:58:36;24.10;;;12.60;;
27847;SDS011;15212;48.830;8.730;2024-03-17T05:01:04;22.65;;;11.88;;
27847;SDS011;15212;48.830;8.730;2024-03-17T05:03:35;22.55;;;12.63;;
27847;SDS011;15212;48.830;8.730;2024-03-17T05:06:04;20.55;;;12.40;;
27847;SDS011;15212;48.830;8.730;2024-03-17T05:08:33;19.15;;;11.75;;
27847;SDS011;15212;48.830;8.730;2024-03-17T05:11:02;20.68;;;11.63;;
27847;SDS011;15212;48.830;8.730;2024-03-17T05:13:32;20.65;;;10.65;;
27847;SDS011;15212;48.830;8.730;2024-03-17T05:16:04;19.32;;;10.82;;
27847;SDS011;15212;48.830;8.730;2024-03-17T05:18:32;21.70;;;10.93;;
27847;SDS011;15212;48.830;8.730;2024-03-17T05:21:01;19.37;;;10.82;;
27847;SDS011;15212;48.830;8.730;2024-03-17T05:23:33;22.25;;;10.85;;
27847;SDS011;15212;48.830;8.730;2024-03-17T05:26:03;18.05;;;10.35;;
27847;SDS011;15212;48.830;8.730;2024-03-17T05:28:32;17.60;;;9.63;;
27847;SDS011;15212;48.830;8.730;2024-03-17T05:31:00;16.87;;;9.30;;
27847;SDS011;15212;48.830;8.730;2024-03-17T05:33:29;15.38;;;9.15;;
27847;SDS011;15212;48.830;8.730;2024-03-17T05:35:58;21.25;;;10.18;;
27847;SDS011;15212;48.830;8.730;2024-03-17T05:38:29;15.45;;;9.30;;
27847;SDS011;15212;48.830;8.730;2024-03-17T05:40:58;24.40;;;10.93;;
27847;SDS011;15212;48.830;8.730;2024-03-17T05:43:35;23.22;;;10.68;;
27847;SDS011;15212;48.830;8.730;2024-03-17T05:46:05;21.57;;;10.78;;
27847;SDS011;15212;48.830;8.730;2024-03-17T05:48:35;17.30;;;9.40;;
27847;SDS011;15212;48.830;8.730;2024-03-17T05:51:12;18.02;;;9.35;;
27847;SDS011;15212;48.830;8.730;2024-03-17T05:53:37;20.55;;;9.35;;
27847;SDS011;15212;48.830;8.730;2024-03-17T05:56:06;18.40;;;9.28;;
27847;SDS011;15212;48.830;8.730;2024-03-17T05:58:35;16.67;;;9.03;;
27847;SDS011;15212;48.830;8.730;2024-03-17T06:01:04;14.45;;;8.78;;
27847;SDS011;15212;48.830;8.730;2024-03-17T06:03:37;17.42;;;9.28;;
27847;SDS011;15212;48.830;8.730;2024-03-17T06:06:06;19.48;;;10.32;;
27847;SDS011;15212;48.830;8.730;2024-03-17T06:08:36;19.20;;;9.93;;
27847;SDS011;15212;48.830;8.730;2024-03-17T06:11:05;16.02;;;9.55;;
27847;SDS011;15212;48.830;8.730;2024-03-17T06:13:34;17.60;;;9.05;;
27847;SDS011;15212;48.830;8.730;2024-03-17T06:16:03;14.38;;;7.47;;
27847;SDS011;15212;48.830;8.730;2024-03-17T06:18:32;11.53;;;7.05;;
27847;SDS011;15212;48.830;8.730;2024-03-17T06:21:00;11.75;;;6.42;;
27847;SDS011;15212;48.830;8.730;2024-03-17T06:23:31;10.03;;;5.37;;
27847;SDS011;15212;48.830;8.730;2024-03-17T06:25:59;9.10;;;5.40;;
27847;SDS011;15212;48.830;8.730;2024-03-17T06:28:29;6.42;;;4.90;;
27847;SDS011;15212;48.830;8.730;2024-03-17T06:30:58;6.95;;;4.58;;
27847;SDS011;15212;48.830;8.730;2024-03-17T06:33:28;10.55;;;5.22;;
27847;SDS011;15212;48.830;8.730;2024-03-17T06:35:58;6.00;;;4.40;;
27847;SDS011;15212;48.830;8.730;2024-03-17T06:38:31;7.30;;;4.75;;
27847;SDS011;15212;48.830;8.730;2024-03-17T06:41:01;7.17;;;4.60;;
27847;SDS011;15212;48.830;8.730;2024-03-17T06:43:29;10.58;;;4.85;;
27847;SDS011;15212;48.830;8.730;2024-03-17T06:45:59;8.28;;;4.45;;
27847;SDS011;15212;48.830;8.730;2024-03-17T06:48:28;7.03;;;4.30;;
27847;SDS011;15212;48.830;8.730;2024-03-17T06:50:56;8.83;;;4.80;;
27847;SDS011;15212;48.830;8.730;2024-03-17T06:53:25;6.42;;;4.62;;
27847;SDS011;15212;48.830;8.730;2024-03-17T06:58:26;7.97;;;5.12;;
27847;SDS011;15212;48.830;8.730;2024-03-17T07:00:56;8.73;;;5.37;;
27847;SDS011;15212;48.830;8.730;2024-03-17T07:03:27;7.45;;;4.83;;
27847;SDS011;15212;48.830;8.730;2024-03-17T07:05:58;9.70;;;5.72;;
27847;SDS011;15212;48.830;8.730;2024-03-17T07:08:32;9.58;;;5.40;;
27847;SDS011;15212;48.830;8.730;2024-03-17T07:11:06;8.28;;;4.50;;
27847;SDS011;15212;48.830;8.730;2024-03-17T07:13:35;8.40;;;5.05;;
27847;SDS011;15212;48.830;8.730;2024-03-17T07:16:23;9.90;;;5.58;;
27847;SDS011;15212;48.830;8.730;2024-03-17T07:18:52;9.30;;;6.22;;
27847;SDS011;15212;48.830;8.730;2024-03-17T07:21:22;11.63;;;6.37;;
27847;SDS011;15212;48.830;8.730;2024-03-17T07:23:50;9.63;;;6.42;;
27847;SDS011;15212;48.830;8.730;2024-03-17T07:26:19;10.18;;;6.22;;
27847;SDS011;15212;48.830;8.730;2024-03-17T07:28:47;11.88;;;5.95;;
27847;SDS011;15212;48.830;8.730;2024-03-17T07:31:16;10.05;;;6.28;;
27847;SDS011;15212;48.830;8.730;2024-03-17T07:33:44;12.90;;;6.17;;
27847;SDS011;15212;48.830;8.730;2024-03-17T07:36:14;9.45;;;5.75;;
27847;SDS011;15212;48.830;8.730;2024-03-17T07:38:42;11.60;;;5.10;;
27847;SDS011;15212;48.830;8.730;2024-03-17T07:41:10;9.85;;;4.83;;
27847;SDS011;15212;48.830;8.730;2024-03-17T07:43:39;9.78;;;5.62;;
27847;SDS011;15212;48.830;8.730;2024-03-17T07:46:08;10.40;;;5.05;;
27847;SDS011;15212;48.830;8.730;2024-03-17T07:48:40;8.93;;;5.28;;
27847;SDS011;15212;48.830;8.730;2024-03-17T07:51:13;9.03;;;5.45;;
27847;SDS011;15212;48.830;8.730;2024-03-17T07:53:44;8.30;;;5.10;;
27847;SDS011;15212;48.830;8.730;2024-03-17T07:56:18;11.77;;;5.60;;
27847;SDS011;15212;48.830;8.730;2024-03-17T07:58:47;8.10;;;4.90;;
27847;SDS011;15212;48.830;8.730;2024-03-17T08:01:17;9.85;;;5.60;;
27847;SDS011;15212;48.830;8.730;2024-03-17T08:03:46;8.65;;;5.33;;
27847;SDS011;15212;48.830;8.730;2024-03-17T08:06:16;10.32;;;5.10;;
27847;SDS011;15212;48.830;8.730;2024-03-17T08:08:45;8.18;;;5.03;;
27847;SDS011;15212;48.830;8.730;2024-03-17T08:11:13;8.43;;;5.70;;
27847;SDS011;15212;48.830;8.730;2024-03-17T08:13:41;9.05;;;5.30;;
27847;SDS011;15212;48.830;8.730;2024-03-17T08:16:10;10.38;;;5.25;;
27847;SDS011;15212;48.830;8.730;2024-03-17T08:18:39;10.28;;;5.92;;
27847;SDS011;15212;48.830;8.730;2024-03-17T08:21:07;9.25;;;5.90;;
27847;SDS011;15212;48.830;8.730;2024-03-17T08:23:36;8.15;;;5.55;;
27847;SDS011;15212;48.830;8.730;2024-03-17T08:26:06;8.95;;;5.58;;
27847;SDS011;15212;48.830;8.730;2024-03-17T08:28:34;9.08;;;5.72;;
27847;SDS011;15212;48.830;8.730;2024-03-17T08:31:03;8.65;;;5.70;;
27847;SDS011;15212;48.830;8.730;2024-03-17T08:33:32;11.38;;;6.30;;
27847;SDS011;15212;48.830;8.730;2024-03-17T08:36:01;11.08;;;6.08;;
27847;SDS011;15212;48.830;8.730;2024-03-17T08:38:37;8.13;;;5.85;;
27847;SDS011;15212;48.830;8.730;2024-03-17T08:41:06;8.80;;;6.03;;
27847;SDS011;15212;48.830;8.730;2024-03-17T08:43:36;7.55;;;5.55;;
27847;SDS011;15212;48.830;8.730;2024-03-17T08:46:07;8.83;;;6.22;;
27847;SDS011;15212;48.830;8.730;2024-03-17T08:48:39;9.55;;;6.40;;
27847;SDS011;15212;48.830;8.730;2024-03-17T08:51:08;8.65;;;6.03;;
27847;SDS011;15212;48.830;8.730;2024-03-17T08:53:37;8.50;;;6.20;;
27847;SDS011;15212;48.830;8.730;2024-03-17T08:56:06;11.45;;;6.37;;
27847;SDS011;15212;48.830;8.730;2024-03-17T08:58:34;9.88;;;6.37;;
27847;SDS011;15212;48.830;8.730;2024-03-17T09:01:03;7.78;;;5.72;;
27847;SDS011;15212;48.830;8.730;2024-03-17T09:03:34;9.55;;;6.03;;
27847;SDS011;15212;48.830;8.730;2024-03-17T09:06:03;8.65;;;5.53;;
27847;SDS011;15212;48.830;8.730;2024-03-17T09:08:31;8.60;;;5.08;;
27847;SDS011;15212;48.830;8.730;2024-03-17T09:10:59;8.35;;;5.35;;
27847;SDS011;15212;48.830;8.730;2024-03-17T09:13:28;9.70;;;6.10;;
27847;SDS011;15212;48.830;8.730;2024-03-17T09:15:57;9.63;;;5.62;;
27847;SDS011;15212;48.830;8.730;2024-03-17T09:18:31;8.70;;;5.22;;
27847;SDS011;15212;48.830;8.730;2024-03-17T09:21:07;7.90;;;5.20;;
27847;SDS011;15212;48.830;8.730;2024-03-17T09:23:37;10.72;;;5.87;;
27847;SDS011;15212;48.830;8.730;2024-03-17T09:26:06;10.45;;;5.87;;
27847;SDS011;15212;48.830;8.730;2024-03-17T09:28:38;10.08;;;6.25;;
27847;SDS011;15212;48.830;8.730;2024-03-17T09:31:06;9.68;;;5.70;;
27847;SDS011;15212;48.830;8.730;2024-03-17T09:33:35;9.48;;;5.40;;
27847;SDS011;15212;48.830;8.730;2024-03-17T09:36:07;9.95;;;5.20;;
27847;SDS011;15212;48.830;8.730;2024-03-17T09:38:38;9.98;;;5.28;;
27847;SDS011;15212;48.830;8.730;2024-03-17T09:41:07;9.20;;;5.10;;
27847;SDS011;15212;48.830;8.730;2024-03-17T09:43:38;7.03;;;5.35;;
27847;SDS011;15212;48.830;8.730;2024-03-17T09:46:07;15.08;;;9.08;;
27847;SDS011;15212;48.830;8.730;2024-03-17T09:48:37;9.18;;;5.40;;
27847;SDS011;15212;48.830;8.730;2024-03-17T09:51:05;8.85;;;4.97;;
27847;SDS011;15212;48.830;8.730;2024-03-17T09:53:34;6.55;;;5.00;;
27847;SDS011;15212;48.830;8.730;2024-03-17T09:56:11;8.08;;;4.78;;
27847;SDS011;15212;48.830;8.730;2024-03-17T09:58:49;10.82;;;5.62;;
27847;SDS011;15212;48.830;8.730;2024-03-17T10:01:19;7.35;;;5.08;;
27847;SDS011;15212;48.830;8.730;2024-03-17T10:03:51;7.35;;;4.65;;
27847;SDS011;15212;48.830;8.730;2024-03-17T10:06:34;8.10;;;5.03;;
27847;SDS011;15212;48.830;8.730;2024-03-17T10:09:15;8.00;;;4.90;;
27847;SDS011;15212;48.830;8.730;2024-03-17T10:11:45;10.10;;;4.75;;
27847;SDS011;15212;48.830;8.730;2024-03-17T10:14:16;8.70;;;5.35;;
27847;SDS011;15212;48.830;8.730;2024-03-17T10:16:45;12.95;;;6.62;;
27847;SDS011;15212;48.830;8.730;2024-03-17T10:19:14;8.25;;;4.50;;
27847;SDS011;15212;48.830;8.730;2024-03-17T10:21:57;8.95;;;4.70;;
27847;SDS011;15212;48.830;8.730;2024-03-17T10:24:27;14.87;;;8.10;;
27847;SDS011;15212;48.830;8.730;2024-03-17T10:26:57;8.13;;;5.05;;
27847;SDS011;15212;48.830;8.730;2024-03-17T10:29:29;7.20;;;4.28;;
27847;SDS011;15212;48.830;8.730;2024-03-17T10:32:14;8.40;;;4.08;;
27847;SDS011;15212;48.830;8.730;2024-03-17T10:34:43;6.65;;;3.30;;
27847;SDS011;15212;48.830;8.730;2024-03-17T10:37:20;7.90;;;3.45;;
27847;SDS011;15212;48.830;8.730;2024-03-17T10:39:53;4.65;;;2.85;;
27847;SDS011;15212;48.830;8.730;2024-03-17T10:42:24;10.40;;;3.60;;
27847;SDS011;15212;48.830;8.730;2024-03-17T10:45:01;8.15;;;3.92;;
27847;SDS011;15212;48.830;8.730;2024-03-17T10:47:33;7.45;;;3.20;;
27847;SDS011;15212;48.830;8.730;2024-03-17T10:50:02;3.52;;;2.70;;
27847;SDS011;15212;48.830;8.730;2024-03-17T10:52:34;7.67;;;2.52;;
27847;SDS011;15212;48.830;8.730;2024-03-17T10:55:07;5.40;;;2.00;;
27847;SDS011;15212;48.830;8.730;2024-03-17T10:57:40;3.42;;;2.15;;
27847;SDS011;15212;48.830;8.730;2024-03-17T11:00:14;3.92;;;2.10;;
27847;SDS011;15212;48.830;8.730;2024-03-17T11:02:51;4.90;;;2.22;;
27847;SDS011;15212;48.830;8.730;2024-03-17T11:05:27;6.80;;;2.20;;
27847;SDS011;15212;48.830;8.730;2024-03-17T11:07:56;5.08;;;2.00;;
27847;SDS011;15212;48.830;8.730;2024-03-17T11:10:28;4.08;;;1.80;;
27847;SDS011;15212;48.830;8.730;2024-03-17T11:13:00;4.33;;;2.20;;
27847;SDS011;15212;48.830;8.730;2024-03-17T11:20:42;11.05;;;4.50;;
27847;SDS011;15212;48.830;8.730;2024-03-17T11:23:30;3.05;;;2.27;;
27847;SDS011;15212;48.830;8.730;2024-03-17T11:25:59;5.03;;;2.22;;
27847;SDS011;15212;48.830;8.730;2024-03-17T11:37:02;5.03;;;2.55;;
27847;SDS011;15212;48.830;8.730;2024-03-17T11:39:49;7.08;;;1.90;;
27847;SDS011;15212;48.830;8.730;2024-03-17T11:42:22;4.47;;;2.10;;
27847;SDS011;15212;48.830;8.730;2024-03-17T11:44:56;4.40;;;1.75;;
27847;SDS011;15212;48.830;8.730;2024-03-17T11:50:04;6.03;;;1.90;;
27847;SDS011;15212;48.830;8.730;2024-03-17T11:52:38;4.05;;;1.70;;
27847;SDS011;15212;48.830;8.730;2024-03-17T11:55:17;5.40;;;1.70;;
27847;SDS011;15212;48.830;8.730;2024-03-17T11:57:46;4.20;;;1.90;;
27847;SDS011;15212;48.830;8.730;2024-03-17T12:00:23;3.83;;;1.67;;
27847;SDS011;15212;48.830;8.730;2024-03-17T12:02:49;6.30;;;1.87;;
27847;SDS011;15212;48.830;8.730;2024-03-17T12:05:19;4.45;;;2.02;;
27847;SDS011;15212;48.830;8.730;2024-03-17T12:07:48;5.00;;;2.55;;
27847;SDS011;15212;48.830;8.730;2024-03-17T12:10:18;4.62;;;2.33;;
27847;SDS011;15212;48.830;8.730;2024-03-17T12:12:47;6.22;;;3.20;;
27847;SDS011;15212;48.830;8.730;2024-03-17T12:15:17;6.53;;;3.92;;
27847;SDS011;15212;48.830;8.730;2024-03-17T12:17:51;8.70;;;4.37;;
27847;SDS011;15212;48.830;8.730;2024-03-17T12:20:21;10.65;;;4.83;;
27847;SDS011;15212;48.830;8.730;2024-03-17T12:22:49;7.45;;;4.58;;
27847;SDS011;15212;48.830;8.730;2024-03-17T12:25:20;6.08;;;3.95;;
27847;SDS011;15212;48.830;8.730;2024-03-17T12:27:50;7.12;;;4.20;;
27847;SDS011;15212;48.830;8.730;2024-03-17T12:30:18;5.42;;;3.12;;
27847;SDS011;15212;48.830;8.730;2024-03-17T12:32:47;5.83;;;3.72;;
27847;SDS011;15212;48.830;8.730;2024-03-17T12:35:16;7.10;;;3.15;;
27847;SDS011;15212;48.830;8.730;2024-03-17T12:37:45;8.63;;;3.87;;
27847;SDS011;15212;48.830;8.730;2024-03-17T12:40:18;6.25;;;4.60;;
27847;SDS011;15212;48.830;8.730;2024-03-17T12:42:49;6.22;;;3.87;;
27847;SDS011;15212;48.830;8.730;2024-03-17T12:45:21;6.60;;;3.90;;
27847;SDS011;15212;48.830;8.730;2024-03-17T12:47:51;7.35;;;3.40;;
27847;SDS011;15212;48.830;8.730;2024-03-17T12:50:21;6.80;;;3.50;;
27847;SDS011;15212;48.830;8.730;2024-03-17T12:52:52;9.23;;;3.83;;
27847;SDS011;15212;48.830;8.730;2024-03-17T12:55:22;6.28;;;3.70;;
27847;SDS011;15212;48.830;8.730;2024-03-17T12:58:09;6.37;;;3.15;;
27847;SDS011;15212;48.830;8.730;2024-03-17T13:01:03;6.97;;;3.20;;
27847;SDS011;15212;48.830;8.730;2024-03-17T13:03:33;7.65;;;4.15;;
27847;SDS011;15212;48.830;8.730;2024-03-17T13:06:05;5.33;;;3.33;;
27847;SDS011;15212;48.830;8.730;2024-03-17T13:08:36;6.10;;;4.08;;
27847;SDS011;15212;48.830;8.730;2024-03-17T13:11:06;7.00;;;3.80;;
27847;SDS011;15212;48.830;8.730;2024-03-17T13:13:36;6.80;;;3.40;;
27847;SDS011;15212;48.830;8.730;2024-03-17T13:16:04;5.42;;;3.33;;
27847;SDS011;15212;48.830;8.730;2024-03-17T13:18:33;7.05;;;3.75;;
27847;SDS011;15212;48.830;8.730;2024-03-17T13:21:02;7.20;;;4.05;;
27847;SDS011;15212;48.830;8.730;2024-03-17T13:23:32;5.00;;;3.52;;
27847;SDS011;15212;48.830;8.730;2024-03-17T13:26:00;7.70;;;3.12;;
27847;SDS011;15212;48.830;8.730;2024-03-17T13:28:28;9.00;;;3.58;;
27847;SDS011;15212;48.830;8.730;2024-03-17T13:30:57;5.55;;;3.10;;
27847;SDS011;15212;48.830;8.730;2024-03-17T13:33:27;7.72;;;3.00;;
27847;SDS011;15212;48.830;8.730;2024-03-17T13:35:55;5.92;;;3.12;;
27847;SDS011;15212;48.830;8.730;2024-03-17T13:38:23;5.08;;;3.15;;
27847;SDS011;15212;48.830;8.730;2024-03-17T13:40:52;6.42;;;3.27;;
27847;SDS011;15212;48.830;8.730;2024-03-17T13:43:20;5.62;;;2.95;;
27847;SDS011;15212;48.830;8.730;2024-03-17T13:45:48;6.53;;;3.00;;
27847;SDS011;15212;48.830;8.730;2024-03-17T13:48:17;4.80;;;2.65;;
27847;SDS011;15212;48.830;8.730;2024-03-17T13:50:46;5.87;;;2.92;;
27847;SDS011;15212;48.830;8.730;2024-03-17T13:53:15;4.40;;;3.00;;
27847;SDS011;15212;48.830;8.730;2024-03-17T13:55:44;4.53;;;2.80;;
27847;SDS011;15212;48.830;8.730;2024-03-17T13:58:12;5.35;;;3.20;;
27847;SDS011;15212;48.830;8.730;2024-03-17T14:00:41;5.17;;;2.58;;
27847;SDS011;15212;48.830;8.730;2024-03-17T14:03:09;4.10;;;2.85;;
27847;SDS011;15212;48.830;8.730;2024-03-17T14:05:37;8.53;;;3.20;;
27847;SDS011;15212;48.830;8.730;2024-03-17T14:08:07;4.75;;;2.90;;
27847;SDS011;15212;48.830;8.730;2024-03-17T14:10:35;6.45;;;2.77;;
27847;SDS011;15212;48.830;8.730;2024-03-17T14:13:03;7.22;;;3.20;;
27847;SDS011;15212;48.830;8.730;2024-03-17T14:15:33;6.45;;;3.58;;
27847;SDS011;15212;48.830;8.730;2024-03-17T14:18:02;5.70;;;3.20;;
27847;SDS011;15212;48.830;8.730;2024-03-17T14:20:30;8.10;;;3.20;;
27847;SDS011;15212;48.830;8.730;2024-03-17T14:22:59;7.95;;;3.42;;
27847;SDS011;15212;48.830;8.730;2024-03-17T14:25:29;8.45;;;3.33;;
27847;SDS011;15212;48.830;8.730;2024-03-17T14:27:57;6.28;;;3.50;;
27847;SDS011;15212;48.830;8.730;2024-03-17T14:30:25;6.85;;;3.42;;
27847;SDS011;15212;48.830;8.730;2024-03-17T14:32:54;5.50;;;3.33;;
27847;SDS011;15212;48.830;8.730;2024-03-17T14:35:22;5.87;;;3.33;;
27847;SDS011;15212;48.830;8.730;2024-03-17T14:37:52;5.65;;;3.50;;
27847;SDS011;15212;48.830;8.730;2024-03-17T14:40:21;7.47;;;3.27;;
27847;SDS011;15212;48.830;8.730;2024-03-17T14:42:50;7.53;;;3.62;;
27847;SDS011;15212;48.830;8.730;2024-03-17T14:45:19;5.72;;;3.70;;
27847;SDS011;15212;48.830;8.730;2024-03-17T14:47:50;6.10;;;3.20;;
27847;SDS011;15212;48.830;8.730;2024-03-17T14:50:19;6.03;;;3.47;;
27847;SDS011;15212;48.830;8.730;2024-03-17T14:52:48;4.80;;;3.05;;
27847;SDS011;15212;48.830;8.730;2024-03-17T14:55:17;8.13;;;3.25;;
27847;SDS011;15212;48.830;8.730;2024-03-17T14:57:46;6.80;;;3.05;;
27847;SDS011;15212;48.830;8.730;2024-03-17T15:00:15;6.55;;;3.22;;
27847;SDS011;15212;48.830;8.730;2024-03-17T15:02:45;5.83;;;3.12;;
27847;SDS011;15212;48.830;8.730;2024-03-17T15:05:15;7.83;;;3.08;;
27847;SDS011;15212;48.830;8.730;2024-03-17T15:07:48;8.50;;;3.10;;
27847;SDS011;15212;48.830;8.730;2024-03-17T15:10:19;5.37;;;3.25;;
27847;SDS011;15212;48.830;8.730;2024-03-17T15:12:49;9.20;;;3.47;;
27847;SDS011;15212;48.830;8.730;2024-03-17T15:15:18;5.25;;;3.40;;